sensor_id;sensor_type;location;lat;lon;timestamp;pressure;altitude;pressure_sealevel;temperature;humidity
69306;BME280;56427;51.580;4.656;2023-04-29T00:00:28;101549.56;;;8.70;100.00
69306;BME280;56427;51.580;4.656;2023-04-29T00:02:54;101547.81;;;8.71;100.00
69306;BME280;56427;51.580;4.656;2023-04-29T00:05:19;101550.56;;;8.68;100.00
69306;BME280;56427;51.580;4.656;2023-04-29T00:07:45;101551.72;;;8.63;100.00
69306;BME280;56427;51.580;4.656;2023-04-29T00:10:10;101555.31;;;8.61;100.00
69306;BME280;56427;51.580;4.656;2023-04-29T00:12:39;101559.56;;;8.62;100.00
69306;BME280;56427;51.580;4.656;2023-04-29T00:15:05;101558.00;;;8.59;100.00
69306;BME280;56427;51.580;4.656;2023-04-29T00:17:31;101562.50;;;8.70;100.00
69306;BME280;56427;51.580;4.656;2023-04-29T00:19:56;101553.59;;;8.74;100.00
69306;BME280;56427;51.580;4.656;2023-04-29T00:22:22;101562.75;;;8.80;100.00
69306;BME280;56427;51.580;4.656;2023-04-29T00:24:47;101559.81;;;8.72;100.00
69306;BME280;56427;51.580;4.656;2023-04-29T00:27:12;101563.97;;;8.74;100.00
69306;BME280;56427;51.580;4.656;2023-04-29T00:29:38;101571.63;;;8.76;100.00
69306;BME280;56427;51.580;4.656;2023-04-29T00:32:03;101571.81;;;8.73;100.00
69306;BME280;56427;51.580;4.656;2023-04-29T00:34:29;101574.44;;;8.58;100.00
69306;BME280;56427;51.580;4.656;2023-04-29T00:36:54;101575.34;;;8.72;100.00
69306;BME280;56427;51.580;4.656;2023-04-29T00:39:20;101572.63;;;8.73;100.00
69306;BME280;56427;51.580;4.656;2023-04-29T00:41:45;101577.38;;;8.66;100.00
69306;BME280;56427;51.580;4.656;2023-04-29T00:44:10;101578.75;;;8.72;100.00
69306;BME280;56427;51.580;4.656;2023-04-29T00:46:36;101572.00;;;8.70;100.00
69306;BME280;56427;51.580;4.656;2023-04-29T00:49:02;101569.13;;;8.74;100.00
69306;BME280;56427;51.580;4.656;2023-04-29T00:51:28;101568.41;;;8.72;100.00
69306;BME280;56427;51.580;4.656;2023-04-29T00:53:53;101571.63;;;8.76;100.00
69306;BME280;56427;51.580;4.656;2023-04-29T00:56:19;101576.59;;;8.79;100.00
69306;BME280;56427;51.580;4.656;2023-04-29T00:58:49;101575.88;;;8.77;100.00
69306;BME280;56427;51.580;4.656;2023-04-29T01:01:16;101579.38;;;8.76;100.00
69306;BME280;56427;51.580;4.656;2023-04-29T01:03:41;101577.00;;;8.73;100.00
69306;BME280;56427;51.580;4.656;2023-04-29T01:14:53;101583.91;;;8.87;100.00
69306;BME280;56427;51.580;4.656;2023-04-29T01:17:30;101586.63;;;8.71;100.00
69306;BME280;56427;51.580;4.656;2023-04-29T01:19:57;101589.00;;;8.74;100.00
69306;BME280;56427;51.580;4.656;2023-04-29T01:22:24;101596.50;;;8.78;100.00
69306;BME280;56427;51.580;4.656;2023-04-29T01:24:50;101582.44;;;8.68;100.00
69306;BME280;56427;51.580;4.656;2023-04-29T01:30:01;101595.28;;;8.70;100.00
69306;BME280;56427;51.580;4.656;2023-04-29T01:32:52;101592.81;;;8.68;100.00
69306;BME280;56427;51.580;4.656;2023-04-29T01:38:17;101594.66;;;8.66;100.00
69306;BME280;56427;51.580;4.656;2023-04-29T01:40:58;101600.56;;;8.68;100.00
69306;BME280;56427;51.580;4.656;2023-04-29T01:43:29;101593.75;;;8.67;100.00
69306;BME280;56427;51.580;4.656;2023-04-29T01:45:56;101605.47;;;8.73;100.00
69306;BME280;56427;51.580;4.656;2023-04-29T01:48:23;101605.66;;;8.70;100.00
69306;BME280;56427;51.580;4.656;2023-04-29T01:50:48;101606.09;;;8.76;100.00
69306;BME280;56427;51.580;4.656;2023-04-29T01:53:14;101605.56;;;8.71;100.00
69306;BME280;56427;51.580;4.656;2023-04-29T01:55:40;101608.50;;;8.79;100.00
69306;BME280;56427;51.580;4.656;2023-04-29T01:58:05;101604.16;;;8.80;100.00
69306;BME280;56427;51.580;4.656;2023-04-29T02:00:30;101609.88;;;8.85;100.00
69306;BME280;56427;51.580;4.656;2023-04-29T02:02:56;101601.00;;;8.75;100.00
69306;BME280;56427;51.580;4.656;2023-04-29T02:05:21;101613.94;;;8.75;100.00
69306;BME280;56427;51.580;4.656;2023-04-29T02:07:46;101606.53;;;8.83;100.00
69306;BME280;56427;51.580;4.656;2023-04-29T02:10:12;101619.34;;;8.99;100.00
69306;BME280;56427;51.580;4.656;2023-04-29T02:12:38;101632.84;;;8.90;100.00
69306;BME280;56427;51.580;4.656;2023-04-29T02:15:03;101623.72;;;8.84;100.00
69306;BME280;56427;51.580;4.656;2023-04-29T02:17:29;101638.28;;;8.72;100.00
69306;BME280;56427;51.580;4.656;2023-04-29T02:19:54;101633.00;;;8.74;100.00
69306;BME280;56427;51.580;4.656;2023-04-29T02:22:20;101644.44;;;8.84;100.00
69306;BME280;56427;51.580;4.656;2023-04-29T02:24:46;101639.19;;;8.71;100.00
69306;BME280;56427;51.580;4.656;2023-04-29T02:27:11;101647.06;;;8.70;100.00
69306;BME280;56427;51.580;4.656;2023-04-29T02:29:37;101643.56;;;8.71;100.00
69306;BME280;56427;51.580;4.656;2023-04-29T02:32:02;101656.75;;;8.80;100.00
69306;BME280;56427;51.580;4.656;2023-04-29T02:34:28;101650.28;;;8.73;100.00
69306;BME280;56427;51.580;4.656;2023-04-29T02:36:53;101650.28;;;8.73;100.00
69306;BME280;56427;51.580;4.656;2023-04-29T02:39:19;101657.84;;;8.76;100.00
69306;BME280;56427;51.580;4.656;2023-04-29T02:41:45;101665.00;;;8.58;100.00
69306;BME280;56427;51.580;4.656;2023-04-29T02:44:10;101661.78;;;8.55;100.00
69306;BME280;56427;51.580;4.656;2023-04-29T02:46:36;101663.00;;;8.49;100.00
69306;BME280;56427;51.580;4.656;2023-04-29T02:49:03;101667.31;;;8.48;100.00
69306;BME280;56427;51.580;4.656;2023-04-29T02:51:30;101667.88;;;8.54;100.00
69306;BME280;56427;51.580;4.656;2023-04-29T02:53:55;101668.91;;;8.51;100.00
69306;BME280;56427;51.580;4.656;2023-04-29T02:56:21;101658.19;;;8.43;100.00
69306;BME280;56427;51.580;4.656;2023-04-29T02:58:47;101667.03;;;8.53;100.00
69306;BME280;56427;51.580;4.656;2023-04-29T03:01:12;101668.34;;;8.46;100.00
69306;BME280;56427;51.580;4.656;2023-04-29T03:03:38;101668.78;;;8.38;100.00
69306;BME280;56427;51.580;4.656;2023-04-29T03:06:04;101671.03;;;8.44;100.00
69306;BME280;56427;51.580;4.656;2023-04-29T03:08:29;101672.22;;;8.39;100.00
69306;BME280;56427;51.580;4.656;2023-04-29T03:10:54;101673.03;;;8.39;100.00
69306;BME280;56427;51.580;4.656;2023-04-29T03:13:20;101673.22;;;8.36;100.00
69306;BME280;56427;51.580;4.656;2023-04-29T03:15:45;101685.16;;;8.39;100.00
69306;BME280;56427;51.580;4.656;2023-04-29T03:18:11;101685.22;;;8.37;100.00
69306;BME280;56427;51.580;4.656;2023-04-29T03:20:36;101683.03;;;8.45;100.00
69306;BME280;56427;51.580;4.656;2023-04-29T03:23:02;101689.28;;;8.41;100.00
69306;BME280;56427;51.580;4.656;2023-04-29T03:25:27;101695.22;;;8.43;100.00
69306;BME280;56427;51.580;4.656;2023-04-29T03:27:53;101685.88;;;8.41;100.00
69306;BME280;56427;51.580;4.656;2023-04-29T03:30:18;101691.22;;;8.38;100.00
69306;BME280;56427;51.580;4.656;2023-04-29T03:32:43;101695.50;;;8.39;100.00
69306;BME280;56427;51.580;4.656;2023-04-29T03:35:09;101695.50;;;8.39;100.00
69306;BME280;56427;51.580;4.656;2023-04-29T03:37:36;101699.56;;;8.43;100.00
69306;BME280;56427;51.580;4.656;2023-04-29T03:40:01;101689.88;;;8.46;100.00
69306;BME280;56427;51.580;4.656;2023-04-29T03:42:26;101690.97;;;8.42;100.00
69306;BME280;56427;51.580;4.656;2023-04-29T03:44:52;101702.16;;;8.43;100.00
69306;BME280;56427;51.580;4.656;2023-04-29T03:47:17;101699.47;;;8.44;100.00
69306;BME280;56427;51.580;4.656;2023-04-29T03:49:42;101695.50;;;8.53;100.00
69306;BME280;56427;51.580;4.656;2023-04-29T03:52:07;101692.91;;;8.39;100.00
69306;BME280;56427;51.580;4.656;2023-04-29T03:54:33;101713.31;;;8.43;100.00
69306;BME280;56427;51.580;4.656;2023-04-29T03:56:58;101710.53;;;8.90;100.00
69306;BME280;56427;51.580;4.656;2023-04-29T03:59:24;101710.47;;;8.48;100.00
69306;BME280;56427;51.580;4.656;2023-04-29T04:01:49;101698.72;;;8.57;100.00
69306;BME280;56427;51.580;4.656;2023-04-29T04:04:15;101705.63;;;8.42;100.00
69306;BME280;56427;51.580;4.656;2023-04-29T04:06:41;101705.94;;;8.37;100.00
69306;BME280;56427;51.580;4.656;2023-04-29T04:09:08;101711.00;;;8.39;100.00
69306;BME280;56427;51.580;4.656;2023-04-29T04:11:33;101717.59;;;8.44;100.00
69306;BME280;56427;51.580;4.656;2023-04-29T04:13:59;101724.22;;;8.48;100.00
69306;BME280;56427;51.580;4.656;2023-04-29T04:16:27;101724.06;;;8.52;100.00
69306;BME280;56427;51.580;4.656;2023-04-29T04:18:56;101729.78;;;8.57;100.00
69306;BME280;56427;51.580;4.656;2023-04-29T04:21:21;101729.31;;;8.50;100.00
69306;BME280;56427;51.580;4.656;2023-04-29T04:23:47;101730.53;;;8.59;100.00
69306;BME280;56427;51.580;4.656;2023-04-29T04:26:12;101730.03;;;8.66;100.00
69306;BME280;56427;51.580;4.656;2023-04-29T04:28:38;101727.94;;;8.59;100.00
69306;BME280;56427;51.580;4.656;2023-04-29T04:31:03;101726.47;;;8.69;100.00
69306;BME280;56427;51.580;4.656;2023-04-29T04:33:29;101731.44;;;8.58;100.00
69306;BME280;56427;51.580;4.656;2023-04-29T04:35:55;101742.44;;;8.61;100.00
69306;BME280;56427;51.580;4.656;2023-04-29T04:38:20;101743.19;;;8.63;100.00
69306;BME280;56427;51.580;4.656;2023-04-29T04:40:47;101750.75;;;8.66;100.00
69306;BME280;56427;51.580;4.656;2023-04-29T04:43:12;101745.66;;;8.65;100.00
69306;BME280;56427;51.580;4.656;2023-04-29T04:45:38;101754.38;;;8.78;100.00
69306;BME280;56427;51.580;4.656;2023-04-29T04:48:03;101758.25;;;8.71;100.00
69306;BME280;56427;51.580;4.656;2023-04-29T04:50:29;101754.38;;;8.64;100.00
69306;BME280;56427;51.580;4.656;2023-04-29T04:52:55;101763.69;;;8.66;100.00
69306;BME280;56427;51.580;4.656;2023-04-29T04:55:20;101767.50;;;8.75;100.00
69306;BME280;56427;51.580;4.656;2023-04-29T04:57:46;101765.19;;;8.71;100.00
69306;BME280;56427;51.580;4.656;2023-04-29T05:00:11;101768.69;;;8.70;100.00
69306;BME280;56427;51.580;4.656;2023-04-29T05:02:37;101770.47;;;8.83;100.00
69306;BME280;56427;51.580;4.656;2023-04-29T05:05:02;101785.72;;;8.74;100.00
69306;BME280;56427;51.580;4.656;2023-04-29T05:07:28;101786.72;;;8.71;100.00
69306;BME280;56427;51.580;4.656;2023-04-29T05:09:53;101784.22;;;8.84;100.00
69306;BME280;56427;51.580;4.656;2023-04-29T05:12:18;101788.00;;;8.93;100.00
69306;BME280;56427;51.580;4.656;2023-04-29T05:14:44;101782.19;;;8.89;100.00
69306;BME280;56427;51.580;4.656;2023-04-29T05:17:09;101791.72;;;8.89;100.00
69306;BME280;56427;51.580;4.656;2023-04-29T05:19:35;101790.41;;;8.81;100.00
69306;BME280;56427;51.580;4.656;2023-04-29T05:22:00;101786.44;;;8.76;100.00
69306;BME280;56427;51.580;4.656;2023-04-29T05:24:26;101788.94;;;8.92;100.00
69306;BME280;56427;51.580;4.656;2023-04-29T05:26:51;101797.16;;;8.98;100.00
69306;BME280;56427;51.580;4.656;2023-04-29T05:29:18;101801.22;;;9.02;100.00
69306;BME280;56427;51.580;4.656;2023-04-29T05:31:43;101800.41;;;9.02;100.00
69306;BME280;56427;51.580;4.656;2023-04-29T05:34:09;101806.41;;;9.02;100.00
69306;BME280;56427;51.580;4.656;2023-04-29T05:36:34;101806.41;;;9.02;100.00
69306;BME280;56427;51.580;4.656;2023-04-29T05:38:59;101803.06;;;9.00;100.00
69306;BME280;56427;51.580;4.656;2023-04-29T05:41:25;101809.25;;;9.12;100.00
69306;BME280;56427;51.580;4.656;2023-04-29T05:43:50;101808.41;;;9.26;100.00
69306;BME280;56427;51.580;4.656;2023-04-29T05:46:16;101811.28;;;9.07;100.00
69306;BME280;56427;51.580;4.656;2023-04-29T05:48:41;101816.56;;;9.20;100.00
69306;BME280;56427;51.580;4.656;2023-04-29T05:51:07;101821.28;;;9.13;100.00
69306;BME280;56427;51.580;4.656;2023-04-29T05:53:32;101818.50;;;9.16;100.00
69306;BME280;56427;51.580;4.656;2023-04-29T05:55:58;101826.75;;;9.23;100.00
69306;BME280;56427;51.580;4.656;2023-04-29T05:58:24;101831.06;;;9.23;100.00
69306;BME280;56427;51.580;4.656;2023-04-29T06:00:50;101830.06;;;9.25;100.00
69306;BME280;56427;51.580;4.656;2023-04-29T06:03:15;101837.91;;;9.24;100.00
69306;BME280;56427;51.580;4.656;2023-04-29T06:05:41;101837.38;;;9.33;100.00
69306;BME280;56427;51.580;4.656;2023-04-29T06:08:07;101836.13;;;9.38;100.00
69306;BME280;56427;51.580;4.656;2023-04-29T06:10:32;101846.69;;;9.35;100.00
69306;BME280;56427;51.580;4.656;2023-04-29T06:12:58;101850.13;;;9.36;100.00
69306;BME280;56427;51.580;4.656;2023-04-29T06:15:23;101852.16;;;9.31;100.00
69306;BME280;56427;51.580;4.656;2023-04-29T06:17:49;101853.28;;;9.41;100.00
69306;BME280;56427;51.580;4.656;2023-04-29T06:20:14;101855.72;;;9.57;100.00
69306;BME280;56427;51.580;4.656;2023-04-29T06:22:39;101847.69;;;9.47;100.00
69306;BME280;56427;51.580;4.656;2023-04-29T06:25:05;101864.53;;;9.54;100.00
69306;BME280;56427;51.580;4.656;2023-04-29T06:27:31;101863.22;;;9.47;100.00
69306;BME280;56427;51.580;4.656;2023-04-29T06:29:59;101870.16;;;9.61;100.00
69306;BME280;56427;51.580;4.656;2023-04-29T06:32:24;101861.31;;;9.51;100.00
69306;BME280;56427;51.580;4.656;2023-04-29T06:34:50;101877.31;;;9.57;100.00
69306;BME280;56427;51.580;4.656;2023-04-29T06:37:15;101881.63;;;9.57;100.00
69306;BME280;56427;51.580;4.656;2023-04-29T06:39:40;101880.63;;;9.60;100.00
69306;BME280;56427;51.580;4.656;2023-04-29T06:42:06;101881.16;;;9.65;100.00
69306;BME280;56427;51.580;4.656;2023-04-29T06:44:31;101892.81;;;9.72;100.00
69306;BME280;56427;51.580;4.656;2023-04-29T06:46:57;101891.88;;;9.73;100.00
69306;BME280;56427;51.580;4.656;2023-04-29T06:49:22;101896.00;;;9.90;100.00
69306;BME280;56427;51.580;4.656;2023-04-29T06:51:48;101912.91;;;10.10;100.00
69306;BME280;56427;51.580;4.656;2023-04-29T06:54:13;101908.41;;;9.99;100.00
69306;BME280;56427;51.580;4.656;2023-04-29T06:56:38;101904.63;;;10.18;100.00
69306;BME280;56427;51.580;4.656;2023-04-29T06:59:04;101904.81;;;10.14;100.00
69306;BME280;56427;51.580;4.656;2023-04-29T07:01:29;101910.34;;;10.23;100.00
69306;BME280;56427;51.580;4.656;2023-04-29T07:03:54;101913.56;;;10.54;100.00
69306;BME280;56427;51.580;4.656;2023-04-29T07:06:20;101914.97;;;10.32;100.00
69306;BME280;56427;51.580;4.656;2023-04-29T07:08:46;101922.56;;;10.35;100.00
69306;BME280;56427;51.580;4.656;2023-04-29T07:11:11;101921.91;;;10.04;100.00
69306;BME280;56427;51.580;4.656;2023-04-29T07:13:37;101925.72;;;9.99;100.00
69306;BME280;56427;51.580;4.656;2023-04-29T07:16:02;101930.31;;;9.81;100.00
69306;BME280;56427;51.580;4.656;2023-04-29T07:18:28;101939.44;;;9.86;100.00
69306;BME280;56427;51.580;4.656;2023-04-29T07:20:53;101936.13;;;9.84;100.00
69306;BME280;56427;51.580;4.656;2023-04-29T07:23:20;101932.63;;;9.71;100.00
69306;BME280;56427;51.580;4.656;2023-04-29T07:25:45;101940.66;;;9.95;100.00
69306;BME280;56427;51.580;4.656;2023-04-29T07:28:11;101939.56;;;10.12;100.00
69306;BME280;56427;51.580;4.656;2023-04-29T07:30:36;101947.22;;;10.55;100.00
69306;BME280;56427;51.580;4.656;2023-04-29T07:33:02;101950.66;;;10.68;100.00
69306;BME280;56427;51.580;4.656;2023-04-29T07:35:28;101947.81;;;10.99;100.00
69306;BME280;56427;51.580;4.656;2023-04-29T07:37:54;101950.22;;;11.02;100.00
69306;BME280;56427;51.580;4.656;2023-04-29T07:40:20;101955.69;;;11.36;100.00
69306;BME280;56427;51.580;4.656;2023-04-29T07:42:45;101941.00;;;11.60;100.00
69306;BME280;56427;51.580;4.656;2023-04-29T07:45:10;101949.78;;;11.96;100.00
69306;BME280;56427;51.580;4.656;2023-04-29T07:47:38;101945.88;;;11.65;100.00
69306;BME280;56427;51.580;4.656;2023-04-29T07:50:03;101945.19;;;12.24;100.00
69306;BME280;56427;51.580;4.656;2023-04-29T07:52:29;101946.69;;;12.75;100.00
69306;BME280;56427;51.580;4.656;2023-04-29T07:54:55;101949.19;;;12.88;100.00
69306;BME280;56427;51.580;4.656;2023-04-29T07:57:20;101949.41;;;12.14;100.00
69306;BME280;56427;51.580;4.656;2023-04-29T07:59:46;101949.22;;;12.28;100.00
69306;BME280;56427;51.580;4.656;2023-04-29T08:02:11;101955.28;;;13.22;100.00
69306;BME280;56427;51.580;4.656;2023-04-29T08:04:38;101956.69;;;13.15;100.00
69306;BME280;56427;51.580;4.656;2023-04-29T08:07:05;101945.09;;;13.53;100.00
69306;BME280;56427;51.580;4.656;2023-04-29T08:09:30;101958.16;;;13.53;100.00
69306;BME280;56427;51.580;4.656;2023-04-29T08:11:56;101957.09;;;13.56;100.00
69306;BME280;56427;51.580;4.656;2023-04-29T08:14:21;101956.81;;;13.25;100.00
69306;BME280;56427;51.580;4.656;2023-04-29T08:16:46;101953.56;;;13.46;100.00
69306;BME280;56427;51.580;4.656;2023-04-29T08:19:12;101949.66;;;14.71;100.00
69306;BME280;56427;51.580;4.656;2023-04-29T08:21:37;101950.59;;;14.91;100.00
69306;BME280;56427;51.580;4.656;2023-04-29T08:24:03;101946.59;;;14.33;100.00
69306;BME280;56427;51.580;4.656;2023-04-29T08:26:30;101942.09;;;14.24;100.00
69306;BME280;56427;51.580;4.656;2023-04-29T08:28:55;101945.44;;;13.60;100.00
69306;BME280;56427;51.580;4.656;2023-04-29T08:31:20;101953.75;;;13.31;100.00
69306;BME280;56427;51.580;4.656;2023-04-29T08:33:46;101964.63;;;13.25;100.00
69306;BME280;56427;51.580;4.656;2023-04-29T08:36:12;101965.50;;;12.79;100.00
69306;BME280;56427;51.580;4.656;2023-04-29T08:38:38;101963.31;;;13.08;100.00
69306;BME280;56427;51.580;4.656;2023-04-29T08:41:03;101965.97;;;13.42;100.00
69306;BME280;56427;51.580;4.656;2023-04-29T08:43:34;101962.00;;;12.91;100.00
69306;BME280;56427;51.580;4.656;2023-04-29T08:46:01;101956.03;;;12.78;100.00
69306;BME280;56427;51.580;4.656;2023-04-29T08:48:28;101963.59;;;13.61;100.00
69306;BME280;56427;51.580;4.656;2023-04-29T08:50:54;101973.44;;;13.58;100.00
69306;BME280;56427;51.580;4.656;2023-04-29T08:53:20;101971.75;;;14.34;100.00
69306;BME280;56427;51.580;4.656;2023-04-29T08:55:47;101976.72;;;15.12;100.00
69306;BME280;56427;51.580;4.656;2023-04-29T08:58:13;101972.03;;;15.16;100.00
69306;BME280;56427;51.580;4.656;2023-04-29T09:00:40;101979.47;;;14.89;100.00
69306;BME280;56427;51.580;4.656;2023-04-29T09:05:48;101981.53;;;15.38;100.00
69306;BME280;56427;51.580;4.656;2023-04-29T09:08:14;101984.28;;;15.36;100.00
69306;BME280;56427;51.580;4.656;2023-04-29T09:10:41;101982.50;;;14.73;100.00
69306;BME280;56427;51.580;4.656;2023-04-29T09:13:07;101985.53;;;14.25;100.00
69306;BME280;56427;51.580;4.656;2023-04-29T09:15:36;101990.69;;;14.04;100.00
69306;BME280;56427;51.580;4.656;2023-04-29T09:18:02;102000.59;;;13.67;100.00
69306;BME280;56427;51.580;4.656;2023-04-29T09:20:28;101997.16;;;13.55;100.00
69306;BME280;56427;51.580;4.656;2023-04-29T09:23:01;101999.06;;;13.53;100.00
69306;BME280;56427;51.580;4.656;2023-04-29T09:25:30;101992.28;;;13.50;100.00
69306;BME280;56427;51.580;4.656;2023-04-29T09:27:56;101991.56;;;13.37;100.00
69306;BME280;56427;51.580;4.656;2023-04-29T09:30:22;101999.69;;;14.23;100.00
69306;BME280;56427;51.580;4.656;2023-04-29T09:33:14;102003.84;;;15.42;100.00
69306;BME280;56427;51.580;4.656;2023-04-29T09:35:41;101999.13;;;15.36;100.00
69306;BME280;56427;51.580;4.656;2023-04-29T09:38:11;101998.19;;;14.41;100.00
69306;BME280;56427;51.580;4.656;2023-04-29T09:40:37;102003.59;;;14.17;100.00
69306;BME280;56427;51.580;4.656;2023-04-29T09:43:10;102007.97;;;13.03;100.00
69306;BME280;56427;51.580;4.656;2023-04-29T09:45:39;102007.84;;;12.69;100.00
69306;BME280;56427;51.580;4.656;2023-04-29T09:48:06;102024.53;;;13.49;100.00
69306;BME280;56427;51.580;4.656;2023-04-29T09:50:33;102014.56;;;13.43;100.00
69306;BME280;56427;51.580;4.656;2023-04-29T09:52:59;102014.00;;;14.40;100.00
69306;BME280;56427;51.580;4.656;2023-04-29T09:55:25;102021.81;;;13.85;100.00
69306;BME280;56427;51.580;4.656;2023-04-29T09:57:54;102020.84;;;15.05;100.00
69306;BME280;56427;51.580;4.656;2023-04-29T10:00:20;102021.59;;;15.69;100.00
69306;BME280;56427;51.580;4.656;2023-04-29T10:02:46;102023.75;;;15.95;100.00
69306;BME280;56427;51.580;4.656;2023-04-29T10:05:13;102021.66;;;15.27;100.00
69306;BME280;56427;51.580;4.656;2023-04-29T10:07:39;102022.56;;;15.16;100.00
69306;BME280;56427;51.580;4.656;2023-04-29T10:10:06;102029.22;;;15.82;100.00
69306;BME280;56427;51.580;4.656;2023-04-29T10:12:34;102022.16;;;16.82;100.00
69306;BME280;56427;51.580;4.656;2023-04-29T10:15:10;102023.44;;;15.88;100.00
69306;BME280;56427;51.580;4.656;2023-04-29T10:17:45;102026.72;;;14.98;100.00
69306;BME280;56427;51.580;4.656;2023-04-29T10:20:20;102033.31;;;13.93;100.00
69306;BME280;56427;51.580;4.656;2023-04-29T10:22:54;102035.56;;;13.98;100.00
69306;BME280;56427;51.580;4.656;2023-04-29T10:25:21;102036.28;;;13.89;100.00
69306;BME280;56427;51.580;4.656;2023-04-29T10:27:48;102035.59;;;13.87;100.00
69306;BME280;56427;51.580;4.656;2023-04-29T10:30:17;102039.47;;;14.04;100.00
69306;BME280;56427;51.580;4.656;2023-04-29T10:32:44;102027.47;;;14.12;100.00
69306;BME280;56427;51.580;4.656;2023-04-29T10:35:11;102024.84;;;14.24;100.00
69306;BME280;56427;51.580;4.656;2023-04-29T10:37:42;102036.09;;;15.00;100.00
69306;BME280;56427;51.580;4.656;2023-04-29T10:45:31;102029.38;;;14.54;100.00
69306;BME280;56427;51.580;4.656;2023-04-29T10:50:33;102038.81;;;14.34;100.00
69306;BME280;56427;51.580;4.656;2023-04-29T10:53:03;102040.38;;;14.25;100.00
69306;BME280;56427;51.580;4.656;2023-04-29T10:55:28;102038.56;;;14.37;100.00
69306;BME280;56427;51.580;4.656;2023-04-29T10:57:55;102037.34;;;14.64;100.00
69306;BME280;56427;51.580;4.656;2023-04-29T11:00:32;102035.63;;;14.74;100.00
69306;BME280;56427;51.580;4.656;2023-04-29T11:02:59;102037.91;;;14.56;100.00
69306;BME280;56427;51.580;4.656;2023-04-29T11:05:30;102039.22;;;14.62;100.00
69306;BME280;56427;51.580;4.656;2023-04-29T11:08:19;102036.31;;;14.32;100.00
69306;BME280;56427;51.580;4.656;2023-04-29T11:10:52;102042.22;;;14.46;100.00
69306;BME280;56427;51.580;4.656;2023-04-29T11:13:25;102043.28;;;15.08;100.00
69306;BME280;56427;51.580;4.656;2023-04-29T11:16:11;102046.81;;;15.49;100.00
69306;BME280;56427;51.580;4.656;2023-04-29T11:19:03;102042.06;;;15.33;100.00
69306;BME280;56427;51.580;4.656;2023-04-29T11:21:28;102049.31;;;14.66;98.45
69306;BME280;56427;51.580;4.656;2023-04-29T11:23:55;102046.84;;;14.42;100.00
69306;BME280;56427;51.580;4.656;2023-04-29T11:26:23;102040.69;;;14.87;98.69
69306;BME280;56427;51.580;4.656;2023-04-29T11:28:50;102041.31;;;15.21;97.54
69306;BME280;56427;51.580;4.656;2023-04-29T11:31:16;102042.69;;;14.83;98.42
69306;BME280;56427;51.580;4.656;2023-04-29T11:33:41;102045.63;;;14.90;100.00
69306;BME280;56427;51.580;4.656;2023-04-29T11:36:08;102042.59;;;15.06;100.00
69306;BME280;56427;51.580;4.656;2023-04-29T11:38:38;102051.88;;;16.03;100.00
69306;BME280;56427;51.580;4.656;2023-04-29T11:41:04;102048.56;;;15.91;94.39
69306;BME280;56427;51.580;4.656;2023-04-29T11:43:29;102054.59;;;15.08;98.78
69306;BME280;56427;51.580;4.656;2023-04-29T11:45:54;102044.41;;;15.67;99.31
69306;BME280;56427;51.580;4.656;2023-04-29T11:48:24;102035.56;;;15.58;96.71
69306;BME280;56427;51.580;4.656;2023-04-29T11:50:56;102044.06;;;16.22;96.70
69306;BME280;56427;51.580;4.656;2023-04-29T11:53:25;102039.22;;;16.08;98.44
69306;BME280;56427;51.580;4.656;2023-04-29T11:55:55;102040.41;;;15.11;95.48
69306;BME280;56427;51.580;4.656;2023-04-29T11:58:22;102037.47;;;15.04;96.93
69306;BME280;56427;51.580;4.656;2023-04-29T12:00:48;102038.00;;;14.77;98.23
69306;BME280;56427;51.580;4.656;2023-04-29T12:03:13;102049.34;;;15.08;97.54
69306;BME280;56427;51.580;4.656;2023-04-29T12:05:54;102042.56;;;15.48;96.13
69306;BME280;56427;51.580;4.656;2023-04-29T12:08:21;102041.53;;;16.01;92.66
69306;BME280;56427;51.580;4.656;2023-04-29T12:10:47;102037.91;;;16.91;89.50
69306;BME280;56427;51.580;4.656;2023-04-29T12:13:13;102033.75;;;16.30;87.31
69306;BME280;56427;51.580;4.656;2023-04-29T12:15:39;102042.09;;;16.05;87.29
69306;BME280;56427;51.580;4.656;2023-04-29T12:18:05;102034.13;;;15.75;91.73
69306;BME280;56427;51.580;4.656;2023-04-29T12:20:30;102037.34;;;15.27;95.05
69306;BME280;56427;51.580;4.656;2023-04-29T12:23:10;102039.97;;;15.79;99.45
69306;BME280;56427;51.580;4.656;2023-04-29T12:25:36;102047.22;;;16.16;97.34
69306;BME280;56427;51.580;4.656;2023-04-29T12:28:01;102048.47;;;16.31;94.88
69306;BME280;56427;51.580;4.656;2023-04-29T12:30:28;102046.16;;;16.58;95.36
69306;BME280;56427;51.580;4.656;2023-04-29T12:32:53;102043.13;;;16.52;96.53
69306;BME280;56427;51.580;4.656;2023-04-29T12:35:19;102046.16;;;16.77;92.58
69306;BME280;56427;51.580;4.656;2023-04-29T12:37:49;102044.25;;;16.89;90.47
69306;BME280;56427;51.580;4.656;2023-04-29T12:40:15;102047.91;;;16.18;83.24
69306;BME280;56427;51.580;4.656;2023-04-29T12:42:42;102050.94;;;16.13;88.43
69306;BME280;56427;51.580;4.656;2023-04-29T12:45:33;102043.09;;;16.23;89.31
69306;BME280;56427;51.580;4.656;2023-04-29T12:48:00;102051.66;;;16.25;89.49
69306;BME280;56427;51.580;4.656;2023-04-29T12:50:30;102050.28;;;15.50;91.90
69306;BME280;56427;51.580;4.656;2023-04-29T12:52:57;102051.00;;;16.52;92.91
69306;BME280;56427;51.580;4.656;2023-04-29T12:55:22;102047.19;;;17.80;87.92
69306;BME280;56427;51.580;4.656;2023-04-29T12:57:48;102044.00;;;17.49;78.51
69306;BME280;56427;51.580;4.656;2023-04-29T13:00:13;102047.47;;;17.40;79.80
69306;BME280;56427;51.580;4.656;2023-04-29T13:02:39;102046.19;;;16.87;83.61
69306;BME280;56427;51.580;4.656;2023-04-29T13:05:05;102052.38;;;16.37;80.14
69306;BME280;56427;51.580;4.656;2023-04-29T13:07:30;102048.50;;;16.41;80.72
69306;BME280;56427;51.580;4.656;2023-04-29T13:09:55;102057.75;;;15.85;83.80